Date,TemperatureHighF,TemperatureAvgF,TemperatureLowF,DewpointHighF,DewpointAvgF,DewpointLowF,HumidityHigh,HumidityAvg,HumidityLow,PressureMaxIn,PressureMinIn,WindSpeedMaxMPH,WindSpeedAvgMPH,GustSpeedMaxMPH,PrecipitationSumIn
2013-1-1,36,34,31,28,25,18,72,67,51,30.09,30.00,4,0,7,0.08
2013-1-2,38,30,26,20,7,2,63,38,24,30.21,30.06,5,1,9,0.08
2013-1-3,42,30,22,18,8,1,58,41,23,30.30,30.18,5,1,12,0.04
2013-1-4,42,32,25,12,8,5,52,38,23,30.36,30.27,6,2,15,0.00
2013-1-5,46,33,21,18,10,6,59,40,22,30.39,30.18,5,1,10,0.00
2013-1-6,45,39,32,15,12,7,38,32,27,30.30,30.03,6,3,15,0.00
2013-1-7,46,34,25,13,9,3,48,36,22,30.44,30.24,5,1,10,0.00
2013-1-8,54,35,22,22,12,8,58,41,20,30.36,30.24,6,1,11,0.00
2013-1-9,53,42,32,40,28,14,70,58,48,30.47,30.24,4,0,9,0.04
2013-1-10,46,39,31,35,29,24,79,68,53,30.50,30.15,4,1,8,0.00
2013-1-11,63,53,41,52,42,30,83,67,44,30.12,29.94,7,2,15,0.40
2013-1-12,67,57,48,60,50,42,86,79,61,30.06,29.91,4,1,7,0.08
2013-1-13,61,58,45,54,49,32,84,73,52,30.06,29.85,5,2,11,0.87
2013-1-14,45,37,31,32,20,11,66,49,33,30.36,30.06,6,2,13,0.00
2013-1-15,34,32,30,25,18,13,73,56,43,30.30,30.00,6,3,10,0.56
2013-1-16,35,34,33,28,27,25,78,74,71,30.06,29.88,3,0,7,0.40
2013-1-17,36,34,29,28,21,16,74,62,46,30.30,30.06,9,1,15,0.00
2013-1-18,41,32,23,21,10,2,68,43,23,30.50,30.30,5,2,11,0.00
2013-1-19,55,42,30,15,10,5,41,28,20,30.30,30.00,7,3,20,0.00
2013-1-20,48,41,27,15,7,-3,35,25,19,30.15,30.00,6,3,15,0.00
2013-1-21,38,28,18,7,0,-11,46,30,21,30.18,30.03,8,3,18,0.00
2013-1-22,25,18,12,-6,-29,-100,27,20,24,30.33,30.18,5,2,12,0.00
2013-1-23,28,21,12,-5,-20,-100,35,22,23,30.33,30.03,5,1,10,0.00
2013-1-24,28,22,18,-1,-7,-11,38,27,23,30.50,30.06,6,2,12,0.00
2013-1-25,28,24,20,16,3,-10,59,42,25,30.41,30.00,6,2,10,0.00
2013-1-26,40,30,22,16,9,0,63,44,23,30.41,30.15,5,1,8,0.04
2013-1-27,47,32,17,24,8,3,58,39,19,30.41,30.21,6,2,10,0.12
2013-1-28,59,48,37,45,34,23,75,61,27,30.21,30.09,7,3,17,0.36
2013-1-29,71,61,52,43,35,29,69,41,22,30.09,29.76,7,4,18,0.00
2013-1-30,69,58,38,50,38,20,78,51,29,29.74,29.38,9,4,26,1.24
2013-1-31,38,32,29,20,9,3,57,37,30,29.94,29.56,7,4,20,0.00